Ocracoke, NC

10:48 PM EDT on April 25, 2015 (GMT -0400)
The Ocracoke Harbor Inn/Silver Lake | | Change Station
CLOSE
Current Station
Personal Weather Station
Location: Ocracoke, NC
Elevation: 15 ft
Nearby Weather Stations

Elev 15 ft 35.11 °N, 75.98 °W | Updated 4 seconds ago

Rain
Rain
61.8 °F
Feels Like 61.8 °F
N
6.0
Wind Variable Wind from ENE
Gusts 9.0 mph

Today
High -- | Low -- °F
--% Chance of Precip.
Yesterday
High -- | Low -- °F
Precip. -- in
6:19 AM 7:44 PM
Waxing Crescent, 51% visible
Pressure 29.63 in
Visibility 10.0 miles
Clouds Few 1000 ft
Mostly Cloudy 2100 ft
Overcast 3400 ft
Dew Point Not available.
Humidity Not available.
Rainfall 0.07 in
Snow Depth Not available.
UV 16.0 out of 12
Pollen 7.00 out of 12
Air Quality Not available.
Flu Activity Sporadic
METAR KHSE 260151Z AUTO 03006KT 10SM -RA FEW010 BKN021 OVC034 13/13 A2963 RMK AO2 SLP032 P0003 T01330133 TSNO

More Conditions Fewer Conditions

Pressure 29.63 in
Visibility 10.0 miles
Clouds Few 1000 ft
Mostly Cloudy 2100 ft
Overcast 3400 ft
Dew Point Not available.
Humidity Not available.
Rainfall 0.07 in
Snow Depth Not available.
UV 16.0 out of 12
Pollen 7.00 out of 12
Air Quality Not available.
Flu Activity Sporadic
METAR KHSE 260151Z AUTO 03006KT 10SM -RA FEW010 BKN021 OVC034 13/13 A2963 RMK AO2 SLP032 P0003 T01330133 TSNO

More Conditions Fewer Conditions

10-Day Weather Forecast

Almanac

Astronomy

Apr. 25, 2015 Rise Set
Actual Time
Civil Twilight
Nautical Twilight
Astronomical Twilight
Moon
Length of Visible Light
Length of Day
Tomorrow will be .
, % of the Moon is Illuminated

Today's Extremes

State Highs State Lows

Community

WunderPhotos

Upload Photos

1,816,909 photos uploaded!

WunderBlogs® & News

Nearby

Air Quality

  Air Quality AQ Index Pollutant
Not available.

Snow Depth

Station Depth Elevation

Earthquake Activity

City Distance Mag. Time & Date
Minimum magnitude displayed is 2.5.

Coastal Water Temperatures

Place Temperature

Stations

Nearby Weather Stations

Station Location Temp. Windchill Dew Point Humidity Wind Precip. Elev Updated Type